sensor_id;sensor_type;location;lat;lon;timestamp;pressure;altitude;pressure_sealevel;temperature;humidity
61710;BME280;47633;51.494;5.386;2023-02-18T00:01:37;102175.00;;;19.57;46.24
61710;BME280;47633;51.494;5.386;2023-02-18T00:04:02;102165.44;;;19.54;45.94
61710;BME280;47633;51.494;5.386;2023-02-18T00:06:30;102167.34;;;19.52;46.26
61710;BME280;47633;51.494;5.386;2023-02-18T00:08:56;102162.91;;;19.53;46.31
61710;BME280;47633;51.494;5.386;2023-02-18T00:11:25;102170.00;;;19.52;46.35
61710;BME280;47633;51.494;5.386;2023-02-18T00:13:57;102163.22;;;19.48;46.17
61710;BME280;47633;51.494;5.386;2023-02-18T00:16:24;102166.81;;;19.47;46.25
61710;BME280;47633;51.494;5.386;2023-02-18T00:18:50;102158.88;;;19.47;46.21
61710;BME280;47633;51.494;5.386;2023-02-18T00:21:18;102154.44;;;19.48;46.37
61710;BME280;47633;51.494;5.386;2023-02-18T00:23:43;102159.94;;;19.45;46.27
61710;BME280;47633;51.494;5.386;2023-02-18T00:26:14;102158.03;;;19.47;46.24
61710;BME280;47633;51.494;5.386;2023-02-18T00:28:40;102154.63;;;19.45;46.29
61710;BME280;47633;51.494;5.386;2023-02-18T00:33:32;102159.09;;;19.44;46.27
61710;BME280;47633;51.494;5.386;2023-02-18T00:36:05;102153.13;;;19.40;46.44
61710;BME280;47633;51.494;5.386;2023-02-18T00:38:31;102147.66;;;19.44;46.26
61710;BME280;47633;51.494;5.386;2023-02-18T00:40:57;102149.56;;;19.42;46.19
61710;BME280;47633;51.494;5.386;2023-02-18T00:43:23;102134.00;;;19.37;46.23
61710;BME280;47633;51.494;5.386;2023-02-18T00:45:48;102125.03;;;19.39;46.46
61710;BME280;47633;51.494;5.386;2023-02-18T00:48:13;102129.25;;;19.42;46.24
61710;BME280;47633;51.494;5.386;2023-02-18T00:50:39;102122.38;;;19.39;46.09
61710;BME280;47633;51.494;5.386;2023-02-18T00:53:04;102112.13;;;19.35;46.18
61710;BME280;47633;51.494;5.386;2023-02-18T00:55:29;102115.50;;;19.37;46.62
61710;BME280;47633;51.494;5.386;2023-02-18T00:57:55;102121.75;;;19.36;46.22
61710;BME280;47633;51.494;5.386;2023-02-18T01:00:20;102103.66;;;19.30;46.27
61710;BME280;47633;51.494;5.386;2023-02-18T01:02:46;102116.56;;;19.34;46.42
61710;BME280;47633;51.494;5.386;2023-02-18T01:05:11;102114.84;;;19.33;46.25
61710;BME280;47633;51.494;5.386;2023-02-18T01:07:36;102111.28;;;19.34;46.26
61710;BME280;47633;51.494;5.386;2023-02-18T01:10:02;102103.56;;;19.31;46.46
61710;BME280;47633;51.494;5.386;2023-02-18T01:12:28;102107.13;;;19.30;46.42
61710;BME280;47633;51.494;5.386;2023-02-18T01:14:53;102107.97;;;19.31;46.27
61710;BME280;47633;51.494;5.386;2023-02-18T01:17:18;102105.44;;;19.29;46.48
61710;BME280;47633;51.494;5.386;2023-02-18T01:19:44;102107.97;;;19.31;46.46
61710;BME280;47633;51.494;5.386;2023-02-18T01:22:09;102103.84;;;19.27;46.39
61710;BME280;47633;51.494;5.386;2023-02-18T01:24:34;102109.03;;;19.28;46.29
61710;BME280;47633;51.494;5.386;2023-02-18T01:26:59;102098.47;;;19.28;46.33
61710;BME280;47633;51.494;5.386;2023-02-18T01:29:25;102098.47;;;19.28;46.61
61710;BME280;47633;51.494;5.386;2023-02-18T01:31:50;102100.34;;;19.26;46.52
61710;BME280;47633;51.494;5.386;2023-02-18T01:34:15;102096.13;;;19.24;46.51
61710;BME280;47633;51.494;5.386;2023-02-18T01:36:41;102104.78;;;19.26;46.57
61710;BME280;47633;51.494;5.386;2023-02-18T01:39:06;102090.94;;;19.22;46.57
61710;BME280;47633;51.494;5.386;2023-02-18T01:41:32;102093.38;;;19.25;46.63
61710;BME280;47633;51.494;5.386;2023-02-18T01:44:13;102087.31;;;19.23;46.57
61710;BME280;47633;51.494;5.386;2023-02-18T01:46:39;102087.31;;;19.23;46.63
61710;BME280;47633;51.494;5.386;2023-02-18T01:49:05;102084.78;;;19.21;46.60
61710;BME280;47633;51.494;5.386;2023-02-18T01:51:36;102083.31;;;19.17;46.67
61710;BME280;47633;51.494;5.386;2023-02-18T01:54:36;102079.50;;;19.21;46.67
61710;BME280;47633;51.494;5.386;2023-02-18T01:57:08;102084.69;;;19.23;46.61
61710;BME280;47633;51.494;5.386;2023-02-18T01:59:40;102080.47;;;19.20;46.73
61710;BME280;47633;51.494;5.386;2023-02-18T02:02:11;102071.03;;;19.16;46.65
61710;BME280;47633;51.494;5.386;2023-02-18T02:04:38;102072.63;;;19.19;46.76
61710;BME280;47633;51.494;5.386;2023-02-18T02:07:04;102070.19;;;19.16;46.63
61710;BME280;47633;51.494;5.386;2023-02-18T02:09:31;102079.06;;;19.15;46.77
61710;BME280;47633;51.494;5.386;2023-02-18T02:17:51;102067.56;;;19.16;46.85
61710;BME280;47633;51.494;5.386;2023-02-18T02:34:41;102035.41;;;19.09;46.81
61710;BME280;47633;51.494;5.386;2023-02-18T02:37:17;102035.22;;;19.12;46.71
61710;BME280;47633;51.494;5.386;2023-02-18T02:40:03;102028.31;;;19.10;46.95
61710;BME280;47633;51.494;5.386;2023-02-18T02:45:37;102023.13;;;19.08;46.69
61710;BME280;47633;51.494;5.386;2023-02-18T02:48:17;102011.63;;;19.09;46.78
61710;BME280;47633;51.494;5.386;2023-02-18T02:53:30;102005.59;;;19.07;46.87
61710;BME280;47633;51.494;5.386;2023-02-18T02:55:58;102012.69;;;19.07;46.96
61710;BME280;47633;51.494;5.386;2023-02-18T02:58:23;102000.41;;;19.06;46.97
61710;BME280;47633;51.494;5.386;2023-02-18T03:03:53;102000.50;;;19.04;46.95
61710;BME280;47633;51.494;5.386;2023-02-18T03:12:04;101987.41;;;19.02;47.01
61710;BME280;47633;51.494;5.386;2023-02-18T03:14:45;101978.00;;;18.98;47.22
61710;BME280;47633;51.494;5.386;2023-02-18T03:17:21;101967.34;;;19.00;47.09
61710;BME280;47633;51.494;5.386;2023-02-18T03:20:06;101969.03;;;19.01;46.95
61710;BME280;47633;51.494;5.386;2023-02-18T03:22:38;101957.50;;;19.02;47.11
61710;BME280;47633;51.494;5.386;2023-02-18T03:25:06;101949.69;;;19.00;47.02
61710;BME280;47633;51.494;5.386;2023-02-18T03:27:41;101948.94;;;18.98;47.14
61710;BME280;47633;51.494;5.386;2023-02-18T03:30:32;101937.53;;;18.98;47.18
61710;BME280;47633;51.494;5.386;2023-02-18T03:33:03;101930.44;;;18.98;46.92
61710;BME280;47633;51.494;5.386;2023-02-18T03:35:29;101921.59;;;18.99;47.09
61710;BME280;47633;51.494;5.386;2023-02-18T03:38:01;101929.63;;;18.98;47.44
61710;BME280;47633;51.494;5.386;2023-02-18T03:40:31;101918.94;;;18.99;46.95
61710;BME280;47633;51.494;5.386;2023-02-18T03:42:57;101913.97;;;18.95;47.15
61710;BME280;47633;51.494;5.386;2023-02-18T03:45:24;101918.19;;;18.97;47.02
61710;BME280;47633;51.494;5.386;2023-02-18T03:47:50;101912.25;;;18.94;47.13
61710;BME280;47633;51.494;5.386;2023-02-18T03:50:15;101905.19;;;18.94;47.19
61710;BME280;47633;51.494;5.386;2023-02-18T03:52:40;101901.69;;;18.94;47.26
61710;BME280;47633;51.494;5.386;2023-02-18T03:55:06;101896.53;;;18.92;47.27
61710;BME280;47633;51.494;5.386;2023-02-18T03:57:31;101905.06;;;18.96;47.21
61710;BME280;47633;51.494;5.386;2023-02-18T03:59:57;101902.44;;;18.96;47.15
61710;BME280;47633;51.494;5.386;2023-02-18T04:02:22;101891.56;;;18.88;47.17
61710;BME280;47633;51.494;5.386;2023-02-18T04:04:47;101888.59;;;18.92;47.13
61710;BME280;47633;51.494;5.386;2023-02-18T04:07:12;101888.50;;;18.94;47.11
61710;BME280;47633;51.494;5.386;2023-02-18T04:09:38;101885.22;;;18.90;47.08
61710;BME280;47633;51.494;5.386;2023-02-18T04:12:03;101881.72;;;18.90;47.23
61710;BME280;47633;51.494;5.386;2023-02-18T04:14:28;101882.38;;;18.93;47.11
61710;BME280;47633;51.494;5.386;2023-02-18T04:16:54;101869.47;;;18.89;46.91
61710;BME280;47633;51.494;5.386;2023-02-18T04:19:19;101866.84;;;18.89;46.94
61710;BME280;47633;51.494;5.386;2023-02-18T04:21:44;101859.84;;;18.88;47.21
61710;BME280;47633;51.494;5.386;2023-02-18T04:24:10;101862.50;;;18.88;46.96
61710;BME280;47633;51.494;5.386;2023-02-18T04:26:35;101880.88;;;18.89;47.08
61710;BME280;47633;51.494;5.386;2023-02-18T04:29:00;101878.13;;;18.91;47.06
61710;BME280;47633;51.494;5.386;2023-02-18T04:31:25;101876.53;;;18.88;47.10
61710;BME280;47633;51.494;5.386;2023-02-18T04:33:51;101870.41;;;18.88;47.20
61710;BME280;47633;51.494;5.386;2023-02-18T04:36:16;101867.56;;;18.91;47.07
61710;BME280;47633;51.494;5.386;2023-02-18T04:38:41;101872.13;;;18.89;47.16
61710;BME280;47633;51.494;5.386;2023-02-18T04:41:07;101875.59;;;18.89;47.29
61710;BME280;47633;51.494;5.386;2023-02-18T04:43:32;101882.69;;;18.89;47.12
61710;BME280;47633;51.494;5.386;2023-02-18T04:45:58;101873.06;;;18.88;46.99
61710;BME280;47633;51.494;5.386;2023-02-18T04:48:23;101879.06;;;18.90;47.09
61710;BME280;47633;51.494;5.386;2023-02-18T04:50:49;101875.59;;;18.89;47.22
61710;BME280;47633;51.494;5.386;2023-02-18T04:53:14;101860.78;;;18.87;47.24
61710;BME280;47633;51.494;5.386;2023-02-18T04:55:39;101856.38;;;18.87;47.07
61710;BME280;47633;51.494;5.386;2023-02-18T04:58:05;101857.31;;;18.86;47.23
61710;BME280;47633;51.494;5.386;2023-02-18T05:00:30;101853.19;;;18.82;47.06
61710;BME280;47633;51.494;5.386;2023-02-18T05:02:55;101860.94;;;18.85;47.10
61710;BME280;47633;51.494;5.386;2023-02-18T05:05:20;101850.44;;;18.83;47.06
61710;BME280;47633;51.494;5.386;2023-02-18T05:07:46;101846.84;;;18.84;47.23
61710;BME280;47633;51.494;5.386;2023-02-18T05:10:15;101841.75;;;18.81;47.24
61710;BME280;47633;51.494;5.386;2023-02-18T05:12:40;101842.50;;;18.83;47.03
61710;BME280;47633;51.494;5.386;2023-02-18T05:15:06;101839.13;;;18.81;47.07
61710;BME280;47633;51.494;5.386;2023-02-18T05:17:32;101843.56;;;18.81;47.31
61710;BME280;47633;51.494;5.386;2023-02-18T05:19:57;101846.84;;;18.84;47.11
61710;BME280;47633;51.494;5.386;2023-02-18T05:22:23;101844.28;;;18.83;47.15
61710;BME280;47633;51.494;5.386;2023-02-18T05:24:48;101824.22;;;18.80;47.08
61710;BME280;47633;51.494;5.386;2023-02-18T05:27:13;101826.88;;;18.80;47.14
61710;BME280;47633;51.494;5.386;2023-02-18T05:29:39;101820.63;;;18.81;47.21
61710;BME280;47633;51.494;5.386;2023-02-18T05:32:04;101823.47;;;18.78;47.23
61710;BME280;47633;51.494;5.386;2023-02-18T05:34:29;101826.00;;;18.80;47.22
61710;BME280;47633;51.494;5.386;2023-02-18T05:36:55;101812.06;;;18.78;47.08
61710;BME280;47633;51.494;5.386;2023-02-18T05:39:20;101818.19;;;18.78;47.30
61710;BME280;47633;51.494;5.386;2023-02-18T05:41:45;101821.69;;;18.79;47.29
61710;BME280;47633;51.494;5.386;2023-02-18T05:44:11;101827.91;;;18.78;47.29
61710;BME280;47633;51.494;5.386;2023-02-18T05:46:54;101835.75;;;18.79;47.00
61710;BME280;47633;51.494;5.386;2023-02-18T05:49:20;101835.13;;;18.76;47.34
61710;BME280;47633;51.494;5.386;2023-02-18T05:51:45;101828.84;;;18.77;47.19
61710;BME280;47633;51.494;5.386;2023-02-18T05:54:10;101829.94;;;18.74;47.18
61710;BME280;47633;51.494;5.386;2023-02-18T05:56:36;101828.84;;;18.77;47.17
61710;BME280;47633;51.494;5.386;2023-02-18T05:59:01;101819.47;;;18.73;47.29
61710;BME280;47633;51.494;5.386;2023-02-18T06:01:26;101809.75;;;18.73;47.29
61710;BME280;47633;51.494;5.386;2023-02-18T06:03:52;101801.81;;;18.73;47.37
61710;BME280;47633;51.494;5.386;2023-02-18T06:06:17;101788.63;;;18.73;47.16
61710;BME280;47633;51.494;5.386;2023-02-18T06:08:42;101799.06;;;18.75;47.22
61710;BME280;47633;51.494;5.386;2023-02-18T06:11:07;101800.78;;;18.76;47.20
61710;BME280;47633;51.494;5.386;2023-02-18T06:13:33;101798.44;;;18.71;47.27
61710;BME280;47633;51.494;5.386;2023-02-18T06:15:58;101798.34;;;18.73;47.10
61710;BME280;47633;51.494;5.386;2023-02-18T06:18:24;101792.31;;;18.71;47.14
61710;BME280;47633;51.494;5.386;2023-02-18T06:20:49;101793.28;;;18.70;47.24
61710;BME280;47633;51.494;5.386;2023-02-18T06:23:14;101787.03;;;18.71;46.99
61710;BME280;47633;51.494;5.386;2023-02-18T06:25:40;101792.41;;;18.69;47.10
61710;BME280;47633;51.494;5.386;2023-02-18T06:28:06;101790.53;;;18.71;46.99
61710;BME280;47633;51.494;5.386;2023-02-18T06:30:31;101793.91;;;18.73;47.38
61710;BME280;47633;51.494;5.386;2023-02-18T06:32:56;101789.34;;;18.75;47.09
61710;BME280;47633;51.494;5.386;2023-02-18T06:35:22;101787.56;;;18.76;47.46
61710;BME280;47633;51.494;5.386;2023-02-18T06:37:47;101787.56;;;18.76;47.52
61710;BME280;47633;51.494;5.386;2023-02-18T06:40:12;101794.22;;;18.81;47.61
61710;BME280;47633;51.494;5.386;2023-02-18T06:42:38;101800.38;;;18.82;47.58
61710;BME280;47633;51.494;5.386;2023-02-18T06:45:03;101811.59;;;18.85;47.46
61710;BME280;47633;51.494;5.386;2023-02-18T06:47:31;101805.13;;;18.90;47.69
61710;BME280;47633;51.494;5.386;2023-02-18T06:49:56;101799.00;;;18.89;47.46
61710;BME280;47633;51.494;5.386;2023-02-18T06:52:21;101806.59;;;18.94;47.46
61710;BME280;47633;51.494;5.386;2023-02-18T06:54:46;101818.78;;;18.96;47.46
61710;BME280;47633;51.494;5.386;2023-02-18T06:57:12;101800.28;;;18.96;47.42
61710;BME280;47633;51.494;5.386;2023-02-18T06:59:37;101798.56;;;18.95;47.33
61710;BME280;47633;51.494;5.386;2023-02-18T07:02:02;101792.97;;;19.00;47.34
61710;BME280;47633;51.494;5.386;2023-02-18T07:04:28;101794.88;;;18.98;47.46
61710;BME280;47633;51.494;5.386;2023-02-18T07:06:53;101805.34;;;18.99;47.26
61710;BME280;47633;51.494;5.386;2023-02-18T07:09:18;101815.66;;;19.02;47.41
61710;BME280;47633;51.494;5.386;2023-02-18T07:11:43;101806.06;;;19.01;47.24
61710;BME280;47633;51.494;5.386;2023-02-18T07:14:09;101813.03;;;19.02;47.17
61710;BME280;47633;51.494;5.386;2023-02-18T07:16:34;101794.53;;;19.02;47.29
61710;BME280;47633;51.494;5.386;2023-02-18T07:18:59;101815.47;;;19.06;47.23
61710;BME280;47633;51.494;5.386;2023-02-18T07:21:24;101802.16;;;19.07;46.77
61710;BME280;47633;51.494;5.386;2023-02-18T07:23:50;101816.31;;;19.06;47.12
61710;BME280;47633;51.494;5.386;2023-02-18T07:26:15;101805.53;;;19.09;46.89
61710;BME280;47633;51.494;5.386;2023-02-18T07:28:41;101807.44;;;19.07;47.16
61710;BME280;47633;51.494;5.386;2023-02-18T07:31:07;101802.34;;;19.04;47.11
61710;BME280;47633;51.494;5.386;2023-02-18T07:33:32;101811.66;;;19.10;47.09
61710;BME280;47633;51.494;5.386;2023-02-18T07:35:59;101809.97;;;19.09;47.21
61710;BME280;47633;51.494;5.386;2023-02-18T07:38:26;101812.81;;;19.06;47.33
61710;BME280;47633;51.494;5.386;2023-02-18T07:40:51;101821.72;;;19.05;47.36
61710;BME280;47633;51.494;5.386;2023-02-18T07:43:17;101822.56;;;19.05;47.45
61710;BME280;47633;51.494;5.386;2023-02-18T07:45:43;101826.69;;;19.09;47.83
61710;BME280;47633;51.494;5.386;2023-02-18T07:48:09;101837.56;;;19.05;47.65
61710;BME280;47633;51.494;5.386;2023-02-18T07:50:34;101846.13;;;19.08;47.44
61710;BME280;47633;51.494;5.386;2023-02-18T07:53:03;101848.97;;;19.05;47.53
61710;BME280;47633;51.494;5.386;2023-02-18T07:55:28;101843.47;;;19.08;47.56
61710;BME280;47633;51.494;5.386;2023-02-18T08:00:45;101841.78;;;19.07;47.36
61710;BME280;47633;51.494;5.386;2023-02-18T08:03:18;101839.13;;;19.07;47.26
61710;BME280;47633;51.494;5.386;2023-02-18T08:05:43;101832.19;;;19.06;47.11
61710;BME280;47633;51.494;5.386;2023-02-18T08:08:14;101847.06;;;19.07;47.30
61710;BME280;47633;51.494;5.386;2023-02-18T08:10:41;101850.78;;;19.05;47.27
61710;BME280;47633;51.494;5.386;2023-02-18T08:13:06;101851.50;;;19.07;47.22
61710;BME280;47633;51.494;5.386;2023-02-18T08:15:31;101847.16;;;19.06;47.42
61710;BME280;47633;51.494;5.386;2023-02-18T08:17:57;101845.50;;;19.05;47.43
61710;BME280;47633;51.494;5.386;2023-02-18T08:20:22;101842.75;;;19.06;47.24
61710;BME280;47633;51.494;5.386;2023-02-18T08:22:47;101840.84;;;19.08;47.27
61710;BME280;47633;51.494;5.386;2023-02-18T08:25:13;101834.72;;;19.08;47.14
61710;BME280;47633;51.494;5.386;2023-02-18T08:27:38;101833.84;;;19.07;47.45
61710;BME280;47633;51.494;5.386;2023-02-18T08:30:04;101828.66;;;19.06;47.54
61710;BME280;47633;51.494;5.386;2023-02-18T08:32:29;101833.97;;;19.06;47.34
61710;BME280;47633;51.494;5.386;2023-02-18T08:34:55;101827.63;;;19.08;47.46
61710;BME280;47633;51.494;5.386;2023-02-18T08:37:20;101821.63;;;19.06;47.29
61710;BME280;47633;51.494;5.386;2023-02-18T08:39:45;101824.25;;;19.06;47.44
61710;BME280;47633;51.494;5.386;2023-02-18T08:42:11;101828.56;;;19.07;47.38
61710;BME280;47633;51.494;5.386;2023-02-18T08:44:36;101829.53;;;19.06;47.45
61710;BME280;47633;51.494;5.386;2023-02-18T08:47:01;101829.31;;;19.09;47.28
61710;BME280;47633;51.494;5.386;2023-02-18T08:49:27;101828.56;;;19.07;47.26
61710;BME280;47633;51.494;5.386;2023-02-18T08:51:52;101839.91;;;19.09;47.15
61710;BME280;47633;51.494;5.386;2023-02-18T08:54:18;101831.97;;;19.09;47.14
61710;BME280;47633;51.494;5.386;2023-02-18T08:56:43;101831.31;;;19.06;47.44
61710;BME280;47633;51.494;5.386;2023-02-18T08:59:09;101832.91;;;19.08;47.39
61710;BME280;47633;51.494;5.386;2023-02-18T09:01:34;101832.91;;;19.08;47.69
61710;BME280;47633;51.494;5.386;2023-02-18T09:03:59;101839.78;;;19.11;47.32
61710;BME280;47633;51.494;5.386;2023-02-18T09:06:25;101827.63;;;19.08;47.46
61710;BME280;47633;51.494;5.386;2023-02-18T09:08:50;101823.94;;;19.11;47.21
61710;BME280;47633;51.494;5.386;2023-02-18T09:11:17;101825.81;;;19.09;47.13
61710;BME280;47633;51.494;5.386;2023-02-18T09:13:43;101839.69;;;19.12;47.00
61710;BME280;47633;51.494;5.386;2023-02-18T09:16:17;101831.97;;;19.09;47.09
61710;BME280;47633;51.494;5.386;2023-02-18T09:18:43;101841.34;;;19.13;46.91
61710;BME280;47633;51.494;5.386;2023-02-18T09:21:10;101826.56;;;19.11;46.84
61710;BME280;47633;51.494;5.386;2023-02-18T09:23:35;101841.56;;;19.10;46.99
61710;BME280;47633;51.494;5.386;2023-02-18T09:26:04;101838.91;;;19.10;47.07
61710;BME280;47633;51.494;5.386;2023-02-18T09:28:29;101845.91;;;19.11;46.82
61710;BME280;47633;51.494;5.386;2023-02-18T09:30:55;101828.34;;;19.10;46.69
61710;BME280;47633;51.494;5.386;2023-02-18T09:33:20;101837.16;;;19.11;46.73
61710;BME280;47633;51.494;5.386;2023-02-18T09:35:46;101839.69;;;19.12;46.49
61710;BME280;47633;51.494;5.386;2023-02-18T09:38:13;101840.63;;;19.11;46.30
61710;BME280;47633;51.494;5.386;2023-02-18T09:40:43;101851.09;;;19.13;46.40
61710;BME280;47633;51.494;5.386;2023-02-18T09:45:53;101841.56;;;19.10;46.16
61710;BME280;47633;51.494;5.386;2023-02-18T09:48:26;101843.25;;;19.11;46.29
61710;BME280;47633;51.494;5.386;2023-02-18T09:50:53;101845.06;;;19.11;46.21
61710;BME280;47633;51.494;5.386;2023-02-18T09:53:20;101847.16;;;19.06;46.16
61710;BME280;47633;51.494;5.386;2023-02-18T09:55:47;101844.41;;;19.07;46.26
61710;BME280;47633;51.494;5.386;2023-02-18T09:58:15;101849.69;;;19.07;46.14
61710;BME280;47633;51.494;5.386;2023-02-18T10:00:48;101850.69;;;19.06;46.09
61710;BME280;47633;51.494;5.386;2023-02-18T10:03:18;101855.63;;;19.11;46.09
61710;BME280;47633;51.494;5.386;2023-02-18T10:06:03;101861.75;;;19.11;46.03
61710;BME280;47633;51.494;5.386;2023-02-18T10:08:42;101863.78;;;19.08;46.18
61710;BME280;47633;51.494;5.386;2023-02-18T10:11:20;101855.97;;;19.06;46.08
61710;BME280;47633;51.494;5.386;2023-02-18T10:13:46;101860.28;;;19.07;46.05
61710;BME280;47633;51.494;5.386;2023-02-18T10:16:15;101864.63;;;19.08;46.05
61710;BME280;47633;51.494;5.386;2023-02-18T10:18:43;101872.66;;;19.07;46.04
61710;BME280;47633;51.494;5.386;2023-02-18T10:21:15;101870.00;;;19.07;46.00
61710;BME280;47633;51.494;5.386;2023-02-18T10:23:54;101857.84;;;19.04;46.16
61710;BME280;47633;51.494;5.386;2023-02-18T10:26:23;101877.00;;;19.08;45.97
61710;BME280;47633;51.494;5.386;2023-02-18T10:28:48;101871.91;;;19.05;45.96
61710;BME280;47633;51.494;5.386;2023-02-18T10:31:30;101864.94;;;19.03;45.99
61710;BME280;47633;51.494;5.386;2023-02-18T10:36:50;101874.34;;;19.08;45.79
61710;BME280;47633;51.494;5.386;2023-02-18T10:44:40;101881.63;;;19.04;45.89
61710;BME280;47633;51.494;5.386;2023-02-18T10:47:19;101874.56;;;19.05;45.81
61710;BME280;47633;51.494;5.386;2023-02-18T10:49:57;101871.72;;;19.08;46.33
61710;BME280;47633;51.494;5.386;2023-02-18T10:52:24;101882.47;;;19.05;46.10
61710;BME280;47633;51.494;5.386;2023-02-18T10:55:06;101888.59;;;19.05;46.02
61710;BME280;47633;51.494;5.386;2023-02-18T10:57:33;101893.78;;;19.07;46.36
61710;BME280;47633;51.494;5.386;2023-02-18T11:00:05;101895.91;;;19.14;46.28
61710;BME280;47633;51.494;5.386;2023-02-18T11:02:40;101891.44;;;19.15;46.08
61710;BME280;47633;51.494;5.386;2023-02-18T11:05:27;101896.72;;;19.15;46.20
61710;BME280;47633;51.494;5.386;2023-02-18T11:07:57;101900.88;;;19.19;46.15
61710;BME280;47633;51.494;5.386;2023-02-18T11:10:31;101900.88;;;19.19;46.08
61710;BME280;47633;51.494;5.386;2023-02-18T11:13:01;101903.41;;;19.20;45.93
61710;BME280;47633;51.494;5.386;2023-02-18T11:15:28;101893.88;;;19.18;45.98
61710;BME280;47633;51.494;5.386;2023-02-18T11:17:56;101897.38;;;19.18;46.06
61710;BME280;47633;51.494;5.386;2023-02-18T11:20:35;101902.03;;;19.15;46.08
61710;BME280;47633;51.494;5.386;2023-02-18T11:25:37;101907.00;;;19.19;46.24
61710;BME280;47633;51.494;5.386;2023-02-18T11:28:06;101906.06;;;19.20;46.19
61710;BME280;47633;51.494;5.386;2023-02-18T11:30:49;101898.00;;;19.22;46.19
61710;BME280;47633;51.494;5.386;2023-02-18T11:33:20;101902.13;;;19.26;45.94
61710;BME280;47633;51.494;5.386;2023-02-18T11:35:50;101900.88;;;19.32;46.01
61710;BME280;47633;51.494;5.386;2023-02-18T11:38:46;101901.16;;;19.40;45.93
61710;BME280;47633;51.494;5.386;2023-02-18T11:44:34;101894.94;;;19.41;45.65
61710;BME280;47633;51.494;5.386;2023-02-18T11:47:02;101897.38;;;19.44;45.54
61710;BME280;47633;51.494;5.386;2023-02-18T11:49:29;101883.28;;;19.44;45.50
61710;BME280;47633;51.494;5.386;2023-02-18T11:57:30;101878.66;;;19.34;46.01
61710;BME280;47633;51.494;5.386;2023-02-18T11:59:56;101885.00;;;19.32;46.05
61710;BME280;47633;51.494;5.386;2023-02-18T12:02:32;101874.53;;;19.30;46.19
61710;BME280;47633;51.494;5.386;2023-02-18T12:05:10;101879.72;;;19.32;46.48
61710;BME280;47633;51.494;5.386;2023-02-18T12:08:34;101881.53;;;19.31;46.21
61710;BME280;47633;51.494;5.386;2023-02-18T12:10:39;101885.94;;;19.44;45.98
61710;BME280;47633;51.494;5.386;2023-02-18T12:15:55;101875.91;;;19.36;46.05
61710;BME280;47633;51.494;5.386;2023-02-18T12:18:48;101887.31;;;19.36;46.11
61710;BME280;47633;51.494;5.386;2023-02-18T12:24:34;101870.63;;;19.36;46.10
61710;BME280;47633;51.494;5.386;2023-02-18T12:27:13;101867.53;;;19.42;45.84
61710;BME280;47633;51.494;5.386;2023-02-18T12:43:39;101859.84;;;19.26;47.95
61710;BME280;47633;51.494;5.386;2023-02-18T12:52:11;101866.31;;;19.22;49.36
61710;BME280;47633;51.494;5.386;2023-02-18T12:57:33;101866.53;;;19.19;49.48
61710;BME280;47633;51.494;5.386;2023-02-18T13:06:01;101871.28;;;19.27;49.03
61710;BME280;47633;51.494;5.386;2023-02-18T13:14:10;101865.22;;;19.25;49.22
61710;BME280;47633;51.494;5.386;2023-02-18T13:16:38;101869.16;;;19.32;48.66
61710;BME280;47633;51.494;5.386;2023-02-18T13:19:46;101867.44;;;19.31;48.68
61710;BME280;47633;51.494;5.386;2023-02-18T13:22:15;101862.47;;;19.26;48.81
61710;BME280;47633;51.494;5.386;2023-02-18T13:24:44;101871.38;;;19.25;48.97
61710;BME280;47633;51.494;5.386;2023-02-18T13:27:23;101876.56;;;19.27;48.82
61710;BME280;47633;51.494;5.386;2023-02-18T13:35:59;101863.66;;;19.22;48.89
61710;BME280;47633;51.494;5.386;2023-02-18T13:38:57;101869.69;;;19.24;48.75
61710;BME280;47633;51.494;5.386;2023-02-18T13:41:25;101846.53;;;19.15;48.79
61710;BME280;47633;51.494;5.386;2023-02-18T13:43:51;101861.84;;;19.23;48.85
61710;BME280;47633;51.494;5.386;2023-02-18T13:46:18;101851.72;;;19.16;48.76
61710;BME280;47633;51.494;5.386;2023-02-18T13:48:48;101856.78;;;19.19;48.73
61710;BME280;47633;51.494;5.386;2023-02-18T13:54:00;101857.75;;;19.31;48.38
61710;BME280;47633;51.494;5.386;2023-02-18T13:56:29;101862.25;;;19.42;48.06
61710;BME280;47633;51.494;5.386;2023-02-18T13:59:07;101869.97;;;19.45;48.01
61710;BME280;47633;51.494;5.386;2023-02-18T14:01:39;101857.72;;;19.44;47.71
61710;BME280;47633;51.494;5.386;2023-02-18T14:09:47;101872.91;;;19.40;47.87
61710;BME280;47633;51.494;5.386;2023-02-18T14:25:57;101863.34;;;19.27;48.43
61710;BME280;47633;51.494;5.386;2023-02-18T14:31:05;101860.69;;;19.27;48.41
61710;BME280;47633;51.494;5.386;2023-02-18T14:45:26;101870.03;;;19.56;47.33
61710;BME280;47633;51.494;5.386;2023-02-18T14:50:31;101863.91;;;19.56;47.28
61710;BME280;47633;51.494;5.386;2023-02-18T14:53:02;101858.00;;;19.52;47.27
61710;BME280;47633;51.494;5.386;2023-02-18T14:55:32;101862.22;;;19.55;47.05
61710;BME280;47633;51.494;5.386;2023-02-18T14:58:07;101859.81;;;19.52;47.16
61710;BME280;47633;51.494;5.386;2023-02-18T15:00:41;101860.88;;;19.49;47.20
61710;BME280;47633;51.494;5.386;2023-02-18T15:03:16;101870.59;;;19.49;47.20
61710;BME280;47633;51.494;5.386;2023-02-18T15:05:42;101863.50;;;19.49;47.21
61710;BME280;47633;51.494;5.386;2023-02-18T15:08:19;101869.84;;;19.47;47.20
61710;BME280;47633;51.494;5.386;2023-02-18T15:13:26;101857.59;;;19.46;46.99
61710;BME280;47633;51.494;5.386;2023-02-18T15:15:58;101851.88;;;19.39;46.90
61710;BME280;47633;51.494;5.386;2023-02-18T15:18:27;101861.19;;;19.45;46.91
61710;BME280;47633;51.494;5.386;2023-02-18T15:20:54;101867.41;;;19.44;47.35
61710;BME280;47633;51.494;5.386;2023-02-18T15:23:19;101858.75;;;19.42;47.38
61710;BME280;47633;51.494;5.386;2023-02-18T15:25:49;101864.16;;;19.40;47.23
61710;BME280;47633;51.494;5.386;2023-02-18T15:28:30;101866.06;;;19.38;47.45